createdAt,value
2017-11-05T00:01:12.872Z,95495.03
2017-11-05T00:03:40.476Z,95492.55
2017-11-05T00:06:07.647Z,95496.71
2017-11-05T00:08:34.928Z,95499.52
2017-11-05T00:11:02.208Z,95502.55
2017-11-05T00:13:29.389Z,95503.30
2017-11-05T00:15:56.614Z,95500.09
2017-11-05T00:18:23.851Z,95507.44
2017-11-05T00:20:51.085Z,95506.86
2017-11-05T00:23:18.255Z,95504.97
2017-11-05T00:25:45.456Z,95501.93
2017-11-05T00:28:12.671Z,95505.34
2017-11-05T00:30:39.856Z,95499.67
2017-11-05T00:33:07.150Z,95499.87
2017-11-05T00:35:34.310Z,95496.84
2017-11-05T00:38:01.518Z,95498.14
2017-11-05T00:40:28.800Z,95500.22
2017-11-05T00:42:56.099Z,95494.94
2017-11-05T00:45:23.248Z,95490.77
2017-11-05T00:47:51.249Z,95502.86
2017-11-05T00:50:18.420Z,95506.25
2017-11-05T00:52:45.653Z,95501.73
2017-11-05T00:55:12.842Z,95496.44
2017-11-05T00:57:40.072Z,95495.66
2017-11-05T01:00:08.158Z,95495.48
2017-11-05T01:02:35.402Z,95490.36
2017-11-05T01:05:02.624Z,95486.60
2017-11-05T01:07:29.863Z,95486.60
2017-11-05T01:09:57.090Z,95483.00
2017-11-05T01:12:24.262Z,95483.75
2017-11-05T01:14:51.469Z,95480.73
2017-11-05T01:17:18.667Z,95483.16
2017-11-05T01:19:45.854Z,95482.22
2017-11-05T01:22:13.259Z,95485.05
2017-11-05T01:24:40.523Z,95483.16
2017-11-05T01:27:08.042Z,95484.84
2017-11-05T01:29:35.305Z,95481.64
2017-11-05T01:32:03.176Z,95481.83
2017-11-05T01:34:30.428Z,95477.86
2017-11-05T01:36:57.648Z,95476.71
2017-11-05T01:39:24.882Z,95468.97
2017-11-05T01:41:52.065Z,95475.40
2017-11-05T01:44:19.227Z,95471.80
2017-11-05T01:46:46.408Z,95471.22
2017-11-05T01:49:13.624Z,95475.57
2017-11-05T01:51:40.807Z,95473.30
2017-11-05T01:54:07.988Z,95479.13
2017-11-05T01:56:35.209Z,95476.48
2017-11-05T01:59:02.381Z,95477.23
2017-11-05T02:09:06.078Z,95487.78
2017-11-05T02:11:33.279Z,95487.43
2017-11-05T02:14:00.725Z,95488.92
2017-11-05T02:16:27.935Z,95487.00
2017-11-05T02:18:55.090Z,95485.29
2017-11-05T02:21:22.300Z,95485.88
2017-11-05T02:23:49.494Z,95483.02
2017-11-05T02:26:16.684Z,95481.13
2017-11-05T02:28:43.840Z,95486.79
2017-11-05T02:31:11.036Z,95479.23
2017-11-05T02:33:38.233Z,95480.00
2017-11-05T02:36:05.483Z,95483.75
2017-11-05T02:38:32.644Z,95479.59
2017-11-05T02:40:59.874Z,95479.40
2017-11-05T02:43:27.063Z,95482.63
2017-11-05T02:45:54.205Z,95482.98
2017-11-05T02:48:21.412Z,95478.09
2017-11-05T02:50:48.562Z,95479.96
2017-11-05T02:53:15.750Z,95480.52
2017-11-05T02:55:42.934Z,95480.13
2017-11-05T02:58:10.123Z,95475.43
2017-11-05T03:00:37.312Z,95472.95
2017-11-05T04:24:58.278Z,95438.19
2017-11-05T04:27:25.460Z,95441.00
2017-11-05T04:29:52.688Z,95434.78
2017-11-05T04:32:19.856Z,95431.77
2017-11-05T04:34:47.016Z,95430.05
2017-11-05T04:37:14.258Z,95432.89
2017-11-05T04:39:41.413Z,95432.14
2017-11-05T04:42:08.584Z,95423.08
2017-11-05T04:44:35.784Z,95432.89
2017-11-05T04:47:02.962Z,95422.33
2017-11-05T04:49:30.148Z,95421.19
2017-11-05T04:51:57.377Z,95419.27
2017-11-05T04:54:24.529Z,95428.35
2017-11-05T04:56:51.720Z,95430.25
2017-11-05T04:59:18.895Z,95425.91
2017-11-05T05:01:46.045Z,95424.97
2017-11-05T05:04:13.261Z,95422.50
2017-11-05T05:06:40.421Z,95427.39
2017-11-05T05:09:07.572Z,95427.39
2017-11-05T05:11:34.800Z,95432.67
2017-11-05T05:14:02.009Z,95432.69
2017-11-05T05:16:29.230Z,95436.45
2017-11-05T05:18:56.420Z,95433.42
2017-11-05T05:21:23.648Z,95437.39
2017-11-05T05:23:50.811Z,95434.36
2017-11-05T05:26:17.999Z,95438.16
2017-11-05T05:28:45.221Z,95442.30
2017-11-05T05:31:12.440Z,95442.30
2017-11-05T05:33:39.683Z,95447.80
2017-11-05T05:36:06.901Z,95447.41
2017-11-05T05:38:34.092Z,95446.28
2017-11-05T05:41:01.292Z,95452.52
2017-11-05T05:43:28.482Z,95456.11
2017-11-05T05:45:55.722Z,95458.22
2017-11-05T05:48:22.907Z,95466.13
2017-11-05T05:50:50.079Z,95468.63
2017-11-05T05:53:17.298Z,95469.58
2017-11-05T05:55:44.460Z,95475.62
2017-11-05T05:58:11.647Z,95473.74
2017-11-05T06:00:38.894Z,95476.38
2017-11-05T06:03:06.540Z,95480.91
2017-11-05T06:05:33.752Z,95485.28
2017-11-05T06:08:00.938Z,95479.23
2017-11-05T06:10:28.146Z,95484.72
2017-11-05T06:12:55.394Z,95482.27
2017-11-05T06:15:22.604Z,95485.67
2017-11-05T06:17:49.759Z,95483.47
2017-11-05T06:20:17.151Z,95485.14
2017-11-05T06:22:44.320Z,95482.72
2017-11-05T06:25:11.545Z,95488.02
2017-11-05T06:27:38.699Z,95488.20
2017-11-05T06:30:05.902Z,95480.85
2017-11-05T06:32:33.090Z,95483.13
2017-11-05T06:35:00.292Z,95485.23
2017-11-05T06:37:27.455Z,95484.84
2017-11-05T06:39:54.701Z,95484.13
2017-11-05T06:42:21.864Z,95485.62
2017-11-05T06:44:49.088Z,95489.02
2017-11-05T06:47:16.335Z,95489.24
2017-11-05T06:49:43.557Z,95486.41
2017-11-05T06:52:10.897Z,95490.56
2017-11-05T06:54:38.086Z,95487.77
2017-11-05T06:57:05.298Z,95481.76
2017-11-05T06:59:32.540Z,95484.98
2017-11-05T07:01:59.723Z,95476.70
2017-11-05T07:04:27.173Z,95484.82
2017-11-05T07:06:54.378Z,95472.18
2017-11-05T07:09:21.527Z,95468.61
2017-11-05T07:11:48.787Z,95465.95
2017-11-05T07:14:15.964Z,95468.62
2017-11-05T07:16:43.144Z,95467.48
2017-11-05T07:19:10.331Z,95462.42
2017-11-05T07:21:37.530Z,95465.07
2017-11-05T07:24:04.742Z,95462.05
2017-11-05T07:26:31.912Z,95459.03
2017-11-05T07:28:59.065Z,95459.60
2017-11-05T07:31:26.658Z,95463.03
2017-11-05T07:33:53.843Z,95459.64
2017-11-05T07:36:21.110Z,95454.75
2017-11-05T07:38:48.313Z,95452.47
2017-11-05T07:41:15.490Z,95446.41
2017-11-05T07:43:42.906Z,95449.47
2017-11-05T07:46:10.145Z,95443.80
2017-11-05T07:48:37.375Z,95443.22
2017-11-05T07:51:04.567Z,95441.34
2017-11-05T07:53:31.814Z,95440.97
2017-11-05T07:55:58.981Z,95436.83
2017-11-05T07:58:26.151Z,95435.87
2017-11-05T08:00:53.434Z,95438.34
2017-11-05T08:03:20.831Z,95443.42
2017-11-05T08:05:48.029Z,95442.48
2017-11-05T08:08:15.226Z,95440.41
2017-11-05T08:10:42.453Z,95442.69
2017-11-05T08:13:09.673Z,95437.97
2017-11-05T08:15:36.961Z,95440.23
2017-11-05T08:18:04.160Z,95441.39
2017-11-05T08:20:31.766Z,95438.75
2017-11-05T08:22:59.033Z,95441.58
2017-11-05T08:25:26.468Z,95441.41
2017-11-05T08:27:53.894Z,95432.53
2017-11-05T08:30:21.107Z,95435.53
2017-11-05T08:32:48.491Z,95436.13
2017-11-05T08:35:15.647Z,95431.58
2017-11-05T08:37:42.847Z,95430.09
2017-11-05T08:40:10.087Z,95427.06
2017-11-05T08:42:37.339Z,95426.50
2017-11-05T08:45:04.787Z,95419.89
2017-11-05T09:10:36.427Z,95401.78
2017-11-05T09:13:03.862Z,95398.55
2017-11-05T09:15:31.084Z,95394.97
2017-11-05T09:17:58.283Z,95386.87
2017-11-05T09:20:25.469Z,95384.41
2017-11-05T09:22:52.683Z,95382.53
2017-11-05T09:25:19.917Z,95381.20
2017-11-05T09:27:47.159Z,95376.09
2017-11-05T09:30:14.393Z,95370.25
2017-11-05T09:32:41.911Z,95367.82
2017-11-05T09:35:09.163Z,95367.25
2017-11-05T09:37:36.315Z,95363.48
2017-11-05T09:40:03.558Z,95360.25
2017-11-05T09:42:30.765Z,95360.46
2017-11-05T09:44:57.944Z,95355.55
2017-11-05T09:47:25.200Z,95357.23
2017-11-05T09:49:52.441Z,95346.86
2017-11-05T09:52:19.618Z,95347.05
2017-11-05T09:54:46.875Z,95344.78
2017-11-05T09:57:14.085Z,95339.12
2017-11-05T09:59:41.405Z,95335.53
2017-11-05T10:02:08.587Z,95325.14
2017-11-05T10:04:35.783Z,95321.94
2017-11-05T10:07:03.037Z,95318.70
2017-11-05T10:09:30.235Z,95312.30
2017-11-05T10:11:57.566Z,95309.07
2017-11-05T10:14:24.848Z,95304.73
2017-11-05T10:16:52.021Z,95300.97
2017-11-05T10:19:19.242Z,95294.74
2017-11-05T10:21:46.426Z,95291.89
2017-11-05T10:24:13.701Z,95292.08
2017-11-05T10:26:41.008Z,95287.73
2017-11-05T10:29:08.293Z,95282.65
2017-11-05T10:31:35.492Z,95275.83
2017-11-05T10:34:02.776Z,95273.19
2017-11-05T10:36:30.925Z,95274.34
2017-11-05T10:38:58.135Z,95262.99
2017-11-05T10:41:25.278Z,95260.73
2017-11-05T10:43:52.495Z,95264.33
2017-11-05T10:46:19.669Z,95248.62
2017-11-05T10:48:46.854Z,95252.02
2017-11-05T10:51:14.087Z,95237.84
2017-11-05T10:53:41.369Z,95234.44
2017-11-05T10:56:08.613Z,95230.30
2017-11-05T10:58:35.840Z,95229.36
2017-11-05T11:01:03.249Z,95228.77
2017-11-05T11:03:30.494Z,95224.04
2017-11-05T11:05:57.731Z,95218.20
2017-11-05T11:08:24.970Z,95218.77
2017-11-05T11:10:52.284Z,95213.25
2017-11-05T11:13:19.517Z,95212.13
2017-11-05T11:15:46.744Z,95209.08
2017-11-05T11:18:13.940Z,95206.82
2017-11-05T11:20:41.160Z,95204.15
2017-11-05T11:23:08.332Z,95203.94
2017-11-05T11:25:35.540Z,95201.86
2017-11-05T11:28:02.768Z,95198.83
2017-11-05T11:30:29.981Z,95193.70
2017-11-05T11:32:57.207Z,95193.88
2017-11-05T11:35:24.431Z,95187.30
2017-11-05T11:37:51.601Z,95184.81
2017-11-05T11:40:18.856Z,95182.91
2017-11-05T11:42:46.090Z,95179.88
2017-11-05T11:45:13.254Z,95175.52
2017-11-05T11:47:40.546Z,95168.89
2017-11-05T11:50:07.718Z,95166.41
2017-11-05T11:52:34.899Z,95165.82
2017-11-05T11:55:02.100Z,95154.28
2017-11-05T11:57:29.292Z,95147.45
2017-11-05T11:59:56.559Z,95151.20
2017-11-05T12:02:23.871Z,95142.52
2017-11-05T12:04:51.104Z,95137.02
2017-11-05T12:07:18.283Z,95141.92
2017-11-05T12:09:46.131Z,95133.38
2017-11-05T12:12:13.362Z,95137.17
2017-11-05T12:14:40.615Z,95127.31
2017-11-05T12:17:07.831Z,95127.69
2017-11-05T12:19:35.101Z,95130.50
2017-11-05T12:22:02.328Z,95126.70
2017-11-05T12:24:29.628Z,95126.70
2017-11-05T12:26:56.817Z,95128.95
2017-11-05T12:29:24.049Z,95131.05
2017-11-05T12:31:51.243Z,95120.63
2017-11-05T12:34:18.468Z,95122.50
2017-11-05T12:36:45.615Z,95128.94
2017-11-05T12:39:12.832Z,95116.25
2017-11-05T12:41:40.144Z,95113.59
2017-11-05T12:44:07.374Z,95113.55
2017-11-05T12:46:34.699Z,95105.05
2017-11-05T12:49:01.909Z,95106.73
2017-11-05T12:51:29.169Z,95110.51
2017-11-05T12:53:56.499Z,95108.06
2017-11-05T12:56:23.667Z,95107.09
2017-11-05T12:58:50.931Z,95106.53
2017-11-05T13:01:18.146Z,95101.95
2017-11-05T13:03:45.357Z,95094.58
2017-11-05T13:06:12.687Z,95095.52
2017-11-05T13:08:39.904Z,95095.88
2017-11-05T13:11:07.149Z,95091.16
2017-11-05T13:13:34.382Z,95086.97
2017-11-05T13:16:01.633Z,95086.41
2017-11-05T13:18:29.005Z,95083.36
2017-11-05T13:20:56.189Z,95080.32
2017-11-05T13:23:23.354Z,95080.49
2017-11-05T13:25:50.548Z,95073.30
2017-11-05T13:28:17.703Z,95065.91
2017-11-05T13:30:44.951Z,95066.64
2017-11-05T13:33:12.105Z,95064.75
2017-11-05T13:35:39.316Z,95070.05
2017-11-05T13:38:06.577Z,95060.39
2017-11-05T13:40:33.804Z,95065.50
2017-11-05T13:43:00.985Z,95062.85
2017-11-05T13:45:28.220Z,95062.64
2017-11-05T13:47:55.410Z,95057.75
2017-11-05T13:50:22.626Z,95056.02
2017-11-05T13:52:49.845Z,95050.34
2017-11-05T13:55:17.088Z,95051.67
2017-11-05T13:57:44.294Z,95054.14
2017-11-05T14:00:13.068Z,95046.55
2017-11-05T14:02:40.325Z,95045.81
2017-11-05T14:07:40.852Z,95045.98
2017-11-05T14:10:08.079Z,95043.89
2017-11-05T14:12:35.280Z,95044.09
2017-11-05T14:15:02.534Z,95045.80
2017-11-05T14:17:29.731Z,95047.48
2017-11-05T14:19:57.012Z,95044.48
2017-11-05T14:22:24.951Z,95043.50
2017-11-05T14:24:52.134Z,95040.28
2017-11-05T14:27:19.358Z,95046.91
2017-11-05T14:29:46.582Z,95045.20
2017-11-05T14:32:13.851Z,95047.67
2017-11-05T14:34:41.067Z,95047.67
2017-11-05T14:37:08.310Z,95046.35
2017-11-05T14:39:35.486Z,95044.44
2017-11-05T14:42:02.815Z,95042.38
2017-11-05T14:44:30.277Z,95039.52
2017-11-05T14:46:57.628Z,95035.36
2017-11-05T14:49:24.854Z,95041.23
2017-11-05T14:51:52.208Z,95042.94
2017-11-05T14:54:20.311Z,95046.16
2017-11-05T14:56:47.463Z,95053.75
2017-11-05T14:59:14.659Z,95047.48
2017-11-05T15:01:41.849Z,95048.45
2017-11-05T15:04:09.087Z,95047.30
2017-11-05T16:28:40.049Z,95067.23
2017-11-05T16:31:07.317Z,95072.73
2017-11-05T16:33:34.523Z,95075.77
2017-11-05T16:36:18.097Z,95072.55
2017-11-05T16:38:45.448Z,95071.03
2017-11-05T16:41:13.825Z,95076.91
2017-11-05T16:43:41.066Z,95075.97
2017-11-05T16:46:08.269Z,95074.66
2017-11-05T16:48:35.505Z,95064.84
2017-11-05T16:51:06.080Z,95067.10
2017-11-05T16:53:33.349Z,95066.92
2017-11-05T16:56:00.691Z,95062.20
2017-11-05T16:58:27.852Z,95061.84
2017-11-05T17:00:55.121Z,95066.75
2017-11-05T17:03:30.347Z,95069.78
2017-11-05T17:05:57.579Z,95068.08
2017-11-05T17:08:24.865Z,95070.34
2017-11-05T17:10:52.101Z,95067.52
2017-11-05T17:13:19.372Z,95076.02
2017-11-05T17:18:49.230Z,95083.99
2017-11-05T17:21:26.911Z,95088.14
2017-11-05T17:23:54.167Z,95101.95
2017-11-05T17:26:29.061Z,95102.34
2017-11-05T17:28:56.377Z,95064.25
2017-11-05T17:31:23.593Z,95108.95
2017-11-05T17:33:50.775Z,95110.07
2017-11-05T17:36:18.090Z,95108.02
2017-11-05T17:38:45.323Z,95113.69
2017-11-05T17:41:12.492Z,95116.51
2017-11-05T17:43:39.732Z,95117.09
2017-11-05T17:46:06.919Z,95116.89
2017-11-05T17:48:34.298Z,95109.16
2017-11-05T17:51:01.473Z,95109.55
2017-11-05T17:53:28.672Z,95110.48
2017-11-05T17:55:55.907Z,95105.02
2017-11-05T17:58:23.179Z,95104.84
2017-11-05T18:00:50.364Z,95112.19
2017-11-05T18:03:17.599Z,95101.63
2017-11-05T18:05:44.908Z,95105.59
2017-11-05T18:08:12.094Z,95100.48
2017-11-05T18:10:39.332Z,95109.01
2017-11-05T18:13:06.503Z,95111.45
2017-11-05T18:15:33.783Z,95113.15
2017-11-05T18:18:01.020Z,95112.59
2017-11-05T18:20:28.234Z,95109.39
2017-11-05T18:22:55.458Z,95111.27
2017-11-05T18:25:22.710Z,95115.80
2017-11-05T18:27:49.903Z,95114.67
2017-11-05T18:30:17.096Z,95117.52
2017-11-05T18:32:44.331Z,95116.20
2017-11-05T18:35:11.553Z,95114.87
2017-11-05T18:37:38.806Z,95111.47
2017-11-05T18:40:05.972Z,95111.67
2017-11-05T18:42:33.183Z,95106.17
2017-11-05T18:45:00.411Z,95115.08
2017-11-05T18:47:27.578Z,95117.90
2017-11-05T18:49:54.856Z,95118.45
2017-11-05T18:52:22.062Z,95110.34
2017-11-05T18:54:49.317Z,95108.84
2017-11-05T18:57:16.577Z,95106.77
2017-11-05T18:59:43.928Z,95107.70
2017-11-05T19:02:11.159Z,95106.76
2017-11-05T19:04:38.378Z,95112.05
2017-11-05T19:07:05.588Z,95110.75
2017-11-05T19:09:32.872Z,95110.92
2017-11-05T19:12:00.083Z,95116.39
2017-11-05T19:14:27.316Z,95110.34
2017-11-05T19:16:54.538Z,95117.33
2017-11-05T19:19:22.442Z,95112.80
2017-11-05T19:21:49.653Z,95112.22
2017-11-05T19:24:16.880Z,95106.95
2017-11-05T19:26:44.086Z,95109.22
2017-11-05T19:29:11.327Z,95108.27
2017-11-05T19:31:38.561Z,95112.23
2017-11-05T19:34:05.761Z,95116.20
2017-11-05T19:36:32.995Z,95118.84
2017-11-05T19:39:00.212Z,95115.06
2017-11-05T19:41:27.452Z,95120.34
2017-11-05T19:43:54.742Z,95122.42
2017-11-05T19:46:21.954Z,95112.06
2017-11-05T19:48:49.344Z,95121.10
2017-11-05T19:51:16.563Z,95121.30
2017-11-05T19:53:45.288Z,95119.22
2017-11-05T19:56:12.568Z,95118.84
2017-11-05T19:58:39.798Z,95115.63
2017-11-05T20:01:06.981Z,95116.39
2017-11-05T20:03:34.232Z,95111.66
2017-11-05T20:06:01.513Z,95120.56
2017-11-05T20:08:28.735Z,95115.63
2017-11-05T20:10:55.957Z,95112.42
2017-11-05T20:13:23.124Z,95116.03
2017-11-05T20:15:50.349Z,95120.00
2017-11-05T20:18:17.588Z,95129.05
2017-11-05T20:20:44.768Z,95128.66
2017-11-05T20:23:12.069Z,95127.55
2017-11-05T20:25:39.238Z,95126.39
2017-11-05T20:28:06.426Z,95127.92
2017-11-05T20:30:33.663Z,95123.19
2017-11-05T20:33:00.832Z,95128.68
2017-11-05T20:35:28.129Z,95129.44
2017-11-05T20:37:55.358Z,95123.39
2017-11-05T20:40:22.543Z,95117.34
2017-11-05T20:42:49.835Z,95113.97
2017-11-05T20:45:17.032Z,95120.94
2017-11-05T20:47:44.327Z,95117.53
2017-11-05T20:50:11.522Z,95119.42
2017-11-05T20:52:38.788Z,95118.66
2017-11-05T20:55:05.984Z,95105.81
2017-11-05T20:57:33.265Z,95114.13
2017-11-05T21:00:00.506Z,95110.92
2017-11-05T21:02:27.712Z,95116.03
2017-11-05T21:04:54.890Z,95113.77
2017-11-05T21:07:22.188Z,95120.17
2017-11-05T21:09:49.366Z,95116.02
2017-11-05T21:12:16.567Z,95111.50
2017-11-05T21:14:43.782Z,95103.95
2017-11-05T21:17:10.984Z,95105.82
2017-11-05T21:19:38.204Z,95108.28
2017-11-05T21:22:05.422Z,95105.64
2017-11-05T21:24:32.595Z,95107.92
2017-11-05T21:26:59.867Z,95098.08
2017-11-05T21:29:27.066Z,95099.78
2017-11-05T21:31:54.278Z,95101.11
2017-11-05T21:34:21.562Z,95092.82
2017-11-05T21:36:48.725Z,95089.23
2017-11-05T21:39:16.005Z,95099.63
2017-11-05T21:41:43.238Z,95096.21
2017-11-05T21:44:10.415Z,95094.13
2017-11-05T21:46:37.614Z,95093.18
2017-11-05T21:49:04.767Z,95093.94
2017-11-05T21:51:31.969Z,95092.44
2017-11-05T21:53:59.144Z,95092.83
2017-11-05T21:56:26.356Z,95089.23
2017-11-05T21:58:53.524Z,95086.03
2017-11-05T22:01:20.794Z,95084.33
2017-11-05T22:03:48.063Z,95087.34
2017-11-05T22:06:15.314Z,95080.18
2017-11-05T22:08:42.488Z,95082.27
2017-11-05T22:11:09.719Z,95077.16
2017-11-05T22:13:36.961Z,95082.81
2017-11-05T22:16:04.195Z,95080.34
2017-11-05T22:54:22.314Z,95075.26
2017-11-05T22:56:49.537Z,95074.14
2017-11-05T22:59:16.724Z,95070.17
2017-11-05T23:01:44.369Z,95068.65
2017-11-05T23:04:11.564Z,95064.88
2017-11-05T23:06:39.004Z,95061.13
2017-11-05T23:09:06.216Z,95063.56
2017-11-05T23:11:33.579Z,95062.80
2017-11-05T23:14:00.794Z,95061.30
2017-11-05T23:16:27.998Z,95051.31
2017-11-05T23:18:55.188Z,95047.53
2017-11-05T23:21:22.389Z,95060.73
2017-11-05T23:23:49.724Z,95056.21
2017-11-05T23:26:16.959Z,95059.41
2017-11-05T23:28:44.181Z,95054.50
2017-11-05T23:31:11.384Z,95059.98
2017-11-05T23:33:38.696Z,95063.75
2017-11-05T23:36:05.934Z,95069.03
2017-11-05T23:38:34.731Z,95060.16
2017-11-05T23:41:01.907Z,95072.42
